sensor_id;sensor_type;location;lat;lon;timestamp;pressure;altitude;pressure_sealevel;temperature;humidity
50430;BME280;36359;41.556;-8.418;2022-10-31T00:01:00;99977.00;;;14.53;100.00
50430;BME280;36359;41.556;-8.418;2022-10-31T00:03:26;99980.22;;;14.48;100.00
50430;BME280;36359;41.556;-8.418;2022-10-31T00:05:52;99976.72;;;14.40;100.00
50430;BME280;36359;41.556;-8.418;2022-10-31T00:08:18;99987.06;;;14.29;100.00
50430;BME280;36359;41.556;-8.418;2022-10-31T00:10:45;99986.13;;;14.60;100.00
50430;BME280;36359;41.556;-8.418;2022-10-31T00:13:12;99989.81;;;14.67;100.00
50430;BME280;36359;41.556;-8.418;2022-10-31T00:15:39;99980.88;;;14.73;100.00
50430;BME280;36359;41.556;-8.418;2022-10-31T00:18:07;99975.34;;;14.82;100.00
50430;BME280;36359;41.556;-8.418;2022-10-31T00:20:33;99980.25;;;14.86;100.00
50430;BME280;36359;41.556;-8.418;2022-10-31T00:23:03;99988.34;;;14.80;100.00
50430;BME280;36359;41.556;-8.418;2022-10-31T00:25:32;99985.63;;;14.80;100.00
50430;BME280;36359;41.556;-8.418;2022-10-31T00:27:58;99991.00;;;15.03;100.00
50430;BME280;36359;41.556;-8.418;2022-10-31T00:30:24;99982.03;;;14.94;100.00
50430;BME280;36359;41.556;-8.418;2022-10-31T00:32:50;99998.66;;;15.07;100.00
50430;BME280;36359;41.556;-8.418;2022-10-31T00:35:16;100005.16;;;15.06;100.00
50430;BME280;36359;41.556;-8.418;2022-10-31T00:37:44;99994.97;;;15.00;100.00
50430;BME280;36359;41.556;-8.418;2022-10-31T00:40:10;99997.03;;;14.98;100.00
50430;BME280;36359;41.556;-8.418;2022-10-31T00:42:36;99981.03;;;14.95;100.00
50430;BME280;36359;41.556;-8.418;2022-10-31T00:45:02;99986.59;;;14.64;100.00
50430;BME280;36359;41.556;-8.418;2022-10-31T00:47:28;99983.09;;;14.93;100.00
50430;BME280;36359;41.556;-8.418;2022-10-31T00:49:54;99978.28;;;14.95;100.00
50430;BME280;36359;41.556;-8.418;2022-10-31T00:52:19;99982.34;;;14.99;100.00
50430;BME280;36359;41.556;-8.418;2022-10-31T00:54:45;99980.44;;;15.14;100.00
50430;BME280;36359;41.556;-8.418;2022-10-31T00:57:11;99974.22;;;15.06;100.00
50430;BME280;36359;41.556;-8.418;2022-10-31T00:59:37;99980.94;;;15.03;100.00
50430;BME280;36359;41.556;-8.418;2022-10-31T01:02:03;99973.72;;;14.72;100.00
50430;BME280;36359;41.556;-8.418;2022-10-31T01:04:29;99941.94;;;14.94;100.00
50430;BME280;36359;41.556;-8.418;2022-10-31T01:06:56;99939.75;;;15.05;100.00
50430;BME280;36359;41.556;-8.418;2022-10-31T01:09:23;99936.34;;;15.17;100.00
50430;BME280;36359;41.556;-8.418;2022-10-31T01:11:48;99917.88;;;15.19;100.00
50430;BME280;36359;41.556;-8.418;2022-10-31T01:14:14;99916.38;;;15.17;100.00
50430;BME280;36359;41.556;-8.418;2022-10-31T01:16:40;99917.88;;;15.19;100.00
50430;BME280;36359;41.556;-8.418;2022-10-31T01:19:05;99899.88;;;15.25;100.00
50430;BME280;36359;41.556;-8.418;2022-10-31T01:21:31;99903.56;;;15.17;100.00
50430;BME280;36359;41.556;-8.418;2022-10-31T01:23:58;99893.97;;;15.21;100.00
50430;BME280;36359;41.556;-8.418;2022-10-31T01:26:27;99895.59;;;15.01;100.00
50430;BME280;36359;41.556;-8.418;2022-10-31T01:28:57;99891.41;;;15.05;100.00
50430;BME280;36359;41.556;-8.418;2022-10-31T01:31:25;99891.25;;;15.07;100.00
50430;BME280;36359;41.556;-8.418;2022-10-31T01:33:52;99899.91;;;15.10;100.00
50430;BME280;36359;41.556;-8.418;2022-10-31T01:36:23;99906.03;;;15.12;100.00
50430;BME280;36359;41.556;-8.418;2022-10-31T01:38:50;99913.03;;;15.00;100.00
50430;BME280;36359;41.556;-8.418;2022-10-31T01:41:22;99908.56;;;14.99;100.00
50430;BME280;36359;41.556;-8.418;2022-10-31T01:43:54;99897.56;;;14.77;100.00
50430;BME280;36359;41.556;-8.418;2022-10-31T01:48:50;99879.09;;;14.80;100.00
50430;BME280;36359;41.556;-8.418;2022-10-31T01:51:20;99878.63;;;14.91;100.00
50430;BME280;36359;41.556;-8.418;2022-10-31T01:53:47;99876.84;;;14.98;100.00
50430;BME280;36359;41.556;-8.418;2022-10-31T01:56:16;99880.78;;;15.10;100.00
50430;BME280;36359;41.556;-8.418;2022-10-31T01:58:42;99872.97;;;15.07;100.00
50430;BME280;36359;41.556;-8.418;2022-10-31T02:01:12;99869.19;;;15.08;100.00
50430;BME280;36359;41.556;-8.418;2022-10-31T02:03:39;99875.22;;;15.04;100.00
50430;BME280;36359;41.556;-8.418;2022-10-31T02:06:10;99869.78;;;15.04;100.00
50430;BME280;36359;41.556;-8.418;2022-10-31T02:08:39;99865.63;;;14.93;100.00
50430;BME280;36359;41.556;-8.418;2022-10-31T02:11:07;99864.22;;;15.12;100.00
50430;BME280;36359;41.556;-8.418;2022-10-31T02:13:35;99867.06;;;14.89;100.00
50430;BME280;36359;41.556;-8.418;2022-10-31T02:16:05;99855.38;;;14.80;100.00
50430;BME280;36359;41.556;-8.418;2022-10-31T02:18:32;99852.16;;;14.91;100.00
50430;BME280;36359;41.556;-8.418;2022-10-31T02:21:19;99843.22;;;14.97;100.00
50430;BME280;36359;41.556;-8.418;2022-10-31T02:32:30;99789.25;;;14.85;100.00
50430;BME280;36359;41.556;-8.418;2022-10-31T02:43:02;99743.31;;;14.44;100.00
50430;BME280;36359;41.556;-8.418;2022-10-31T02:45:33;99733.28;;;14.59;100.00
50430;BME280;36359;41.556;-8.418;2022-10-31T02:48:08;99719.50;;;14.67;100.00
50430;BME280;36359;41.556;-8.418;2022-10-31T02:50:39;99717.69;;;14.74;100.00
50430;BME280;36359;41.556;-8.418;2022-10-31T02:53:08;99727.09;;;14.87;100.00
50430;BME280;36359;41.556;-8.418;2022-10-31T02:58:10;99717.94;;;14.94;100.00
50430;BME280;36359;41.556;-8.418;2022-10-31T03:03:23;99699.94;;;15.21;100.00
50430;BME280;36359;41.556;-8.418;2022-10-31T03:06:00;99697.03;;;15.51;100.00
50430;BME280;36359;41.556;-8.418;2022-10-31T03:08:54;99707.59;;;15.54;100.00
50430;BME280;36359;41.556;-8.418;2022-10-31T03:11:25;99706.69;;;15.47;100.00
50430;BME280;36359;41.556;-8.418;2022-10-31T03:14:09;99688.06;;;15.57;100.00
50430;BME280;36359;41.556;-8.418;2022-10-31T03:16:50;99684.34;;;15.43;100.00
50430;BME280;36359;41.556;-8.418;2022-10-31T03:24:13;99664.97;;;15.66;100.00
50430;BME280;36359;41.556;-8.418;2022-10-31T03:26:47;99669.94;;;15.78;100.00
50430;BME280;36359;41.556;-8.418;2022-10-31T03:29:17;99680.06;;;15.84;100.00
50430;BME280;36359;41.556;-8.418;2022-10-31T03:31:53;99687.88;;;15.87;100.00
50430;BME280;36359;41.556;-8.418;2022-10-31T03:34:22;99691.53;;;15.44;100.00
50430;BME280;36359;41.556;-8.418;2022-10-31T03:36:53;99681.13;;;15.61;100.00
50430;BME280;36359;41.556;-8.418;2022-10-31T03:39:21;99679.19;;;15.55;100.00
50430;BME280;36359;41.556;-8.418;2022-10-31T03:41:55;99704.63;;;15.56;100.00
50430;BME280;36359;41.556;-8.418;2022-10-31T03:44:26;99705.28;;;15.58;100.00
50430;BME280;36359;41.556;-8.418;2022-10-31T03:46:58;99717.25;;;15.50;100.00
50430;BME280;36359;41.556;-8.418;2022-10-31T03:49:25;99710.09;;;15.71;100.00
50430;BME280;36359;41.556;-8.418;2022-10-31T03:54:56;99692.69;;;15.85;100.00
50430;BME280;36359;41.556;-8.418;2022-10-31T03:57:18;99678.22;;;15.91;100.00
50430;BME280;36359;41.556;-8.418;2022-10-31T04:00:03;99661.06;;;16.04;100.00
50430;BME280;36359;41.556;-8.418;2022-10-31T04:02:34;99663.38;;;16.07;100.00
50430;BME280;36359;41.556;-8.418;2022-10-31T04:05:04;99670.41;;;16.23;100.00
50430;BME280;36359;41.556;-8.418;2022-10-31T04:07:37;99663.03;;;16.23;100.00
50430;BME280;36359;41.556;-8.418;2022-10-31T04:10:08;99669.31;;;16.17;100.00
50430;BME280;36359;41.556;-8.418;2022-10-31T04:12:35;99679.03;;;16.20;100.00
50430;BME280;36359;41.556;-8.418;2022-10-31T04:15:13;99672.41;;;16.42;100.00
50430;BME280;36359;41.556;-8.418;2022-10-31T04:17:41;99658.06;;;16.40;100.00
50430;BME280;36359;41.556;-8.418;2022-10-31T04:20:10;99650.69;;;16.34;100.00
50430;BME280;36359;41.556;-8.418;2022-10-31T04:22:36;99627.47;;;16.23;100.00
50430;BME280;36359;41.556;-8.418;2022-10-31T04:25:02;99624.31;;;16.26;100.00
50430;BME280;36359;41.556;-8.418;2022-10-31T04:27:27;99638.22;;;16.25;100.00
50430;BME280;36359;41.556;-8.418;2022-10-31T04:29:53;99631.50;;;16.27;100.00
50430;BME280;36359;41.556;-8.418;2022-10-31T04:32:19;99634.00;;;16.29;100.00
50430;BME280;36359;41.556;-8.418;2022-10-31T04:34:44;99628.06;;;16.12;100.00
50430;BME280;36359;41.556;-8.418;2022-10-31T04:37:10;99635.31;;;16.33;100.00
50430;BME280;36359;41.556;-8.418;2022-10-31T04:39:36;99642.59;;;16.12;100.00
50430;BME280;36359;41.556;-8.418;2022-10-31T04:42:21;99636.06;;;16.13;100.00
50430;BME280;36359;41.556;-8.418;2022-10-31T04:44:47;99645.19;;;16.27;100.00
50430;BME280;36359;41.556;-8.418;2022-10-31T04:47:13;99631.28;;;16.29;100.00
50430;BME280;36359;41.556;-8.418;2022-10-31T04:49:39;99623.06;;;16.29;100.00
50430;BME280;36359;41.556;-8.418;2022-10-31T04:52:06;99638.25;;;16.38;100.00
50430;BME280;36359;41.556;-8.418;2022-10-31T04:54:34;99641.03;;;16.45;100.00
50430;BME280;36359;41.556;-8.418;2022-10-31T04:57:22;99629.00;;;16.32;100.00
50430;BME280;36359;41.556;-8.418;2022-10-31T04:59:48;99594.09;;;16.48;100.00
50430;BME280;36359;41.556;-8.418;2022-10-31T05:02:14;99593.44;;;16.46;100.00
50430;BME280;36359;41.556;-8.418;2022-10-31T05:04:45;99590.28;;;16.55;100.00
50430;BME280;36359;41.556;-8.418;2022-10-31T05:07:11;99593.03;;;16.49;100.00
50430;BME280;36359;41.556;-8.418;2022-10-31T05:09:37;99585.69;;;16.56;100.00
50430;BME280;36359;41.556;-8.418;2022-10-31T05:12:03;99595.78;;;16.55;100.00
50430;BME280;36359;41.556;-8.418;2022-10-31T05:15:07;99583.78;;;16.56;100.00
50430;BME280;36359;41.556;-8.418;2022-10-31T05:17:53;99592.19;;;16.62;100.00
50430;BME280;36359;41.556;-8.418;2022-10-31T05:20:37;99601.53;;;16.74;100.00
50430;BME280;36359;41.556;-8.418;2022-10-31T05:23:14;99596.00;;;16.61;100.00
50430;BME280;36359;41.556;-8.418;2022-10-31T05:25:41;99569.25;;;16.63;100.00
50430;BME280;36359;41.556;-8.418;2022-10-31T05:28:07;99547.53;;;16.54;100.00
50430;BME280;36359;41.556;-8.418;2022-10-31T05:30:34;99548.19;;;16.70;100.00
50430;BME280;36359;41.556;-8.418;2022-10-31T05:33:00;99544.19;;;16.66;100.00
50430;BME280;36359;41.556;-8.418;2022-10-31T05:35:45;99550.31;;;16.74;100.00
50430;BME280;36359;41.556;-8.418;2022-10-31T05:38:26;99552.41;;;16.59;100.00
50430;BME280;36359;41.556;-8.418;2022-10-31T05:40:55;99541.03;;;16.69;100.00
50430;BME280;36359;41.556;-8.418;2022-10-31T05:43:23;99550.28;;;16.61;100.00
50430;BME280;36359;41.556;-8.418;2022-10-31T05:45:56;99558.72;;;16.66;100.00
50430;BME280;36359;41.556;-8.418;2022-10-31T05:48:57;99550.75;;;16.71;100.00
50430;BME280;36359;41.556;-8.418;2022-10-31T05:51:41;99566.53;;;16.69;100.00
50430;BME280;36359;41.556;-8.418;2022-10-31T05:54:07;99556.44;;;16.76;100.00
50430;BME280;36359;41.556;-8.418;2022-10-31T05:56:33;99541.88;;;16.69;100.00
50430;BME280;36359;41.556;-8.418;2022-10-31T05:58:59;99541.50;;;16.79;100.00
50430;BME280;36359;41.556;-8.418;2022-10-31T06:01:26;99537.06;;;16.78;100.00
50430;BME280;36359;41.556;-8.418;2022-10-31T06:03:52;99525.03;;;16.72;100.00
50430;BME280;36359;41.556;-8.418;2022-10-31T06:06:21;99520.03;;;16.83;100.00
50430;BME280;36359;41.556;-8.418;2022-10-31T06:08:47;99545.28;;;16.78;100.00
50430;BME280;36359;41.556;-8.418;2022-10-31T06:11:16;99527.59;;;16.80;100.00
50430;BME280;36359;41.556;-8.418;2022-10-31T06:14:00;99529.28;;;16.82;100.00
50430;BME280;36359;41.556;-8.418;2022-10-31T06:17:05;99527.16;;;16.90;100.00
50430;BME280;36359;41.556;-8.418;2022-10-31T06:19:50;99541.72;;;16.77;100.00
50430;BME280;36359;41.556;-8.418;2022-10-31T06:22:20;99549.09;;;16.90;100.00
50430;BME280;36359;41.556;-8.418;2022-10-31T06:24:46;99524.00;;;16.87;100.00
50430;BME280;36359;41.556;-8.418;2022-10-31T06:27:30;99543.19;;;16.93;100.00
50430;BME280;36359;41.556;-8.418;2022-10-31T06:30:01;99540.69;;;16.92;100.00
50430;BME280;36359;41.556;-8.418;2022-10-31T06:32:31;99534.56;;;16.83;100.00
50430;BME280;36359;41.556;-8.418;2022-10-31T06:34:57;99544.88;;;17.01;100.00
50430;BME280;36359;41.556;-8.418;2022-10-31T06:37:23;99541.09;;;16.89;100.00
50430;BME280;36359;41.556;-8.418;2022-10-31T06:39:51;99528.84;;;16.78;100.00
50430;BME280;36359;41.556;-8.418;2022-10-31T06:42:17;99533.06;;;16.87;100.00
50430;BME280;36359;41.556;-8.418;2022-10-31T06:44:43;99547.41;;;16.96;100.00
50430;BME280;36359;41.556;-8.418;2022-10-31T06:47:27;99526.75;;;16.87;100.00
50430;BME280;36359;41.556;-8.418;2022-10-31T06:50:05;99526.13;;;16.85;100.00
50430;BME280;36359;41.556;-8.418;2022-10-31T06:52:31;99564.66;;;16.76;100.00
50430;BME280;36359;41.556;-8.418;2022-10-31T06:54:57;99566.16;;;16.92;100.00
50430;BME280;36359;41.556;-8.418;2022-10-31T06:57:23;99555.00;;;16.87;100.00
50430;BME280;36359;41.556;-8.418;2022-10-31T06:59:48;99563.84;;;16.89;100.00
50430;BME280;36359;41.556;-8.418;2022-10-31T07:02:18;99575.22;;;16.99;100.00
50430;BME280;36359;41.556;-8.418;2022-10-31T07:04:43;99590.59;;;16.94;100.00
50430;BME280;36359;41.556;-8.418;2022-10-31T07:07:12;99587.88;;;16.87;100.00
50430;BME280;36359;41.556;-8.418;2022-10-31T07:09:38;99595.66;;;16.77;100.00
50430;BME280;36359;41.556;-8.418;2022-10-31T07:12:05;99590.59;;;16.80;100.00
50430;BME280;36359;41.556;-8.418;2022-10-31T07:14:35;99591.66;;;16.93;100.00
50430;BME280;36359;41.556;-8.418;2022-10-31T07:17:01;99603.06;;;16.96;100.00
50430;BME280;36359;41.556;-8.418;2022-10-31T07:19:40;99622.47;;;16.95;100.00
50430;BME280;36359;41.556;-8.418;2022-10-31T07:22:05;99617.16;;;16.93;100.00
50430;BME280;36359;41.556;-8.418;2022-10-31T07:24:32;99634.22;;;16.82;100.00
50430;BME280;36359;41.556;-8.418;2022-10-31T07:27:17;99634.19;;;16.75;100.00
50430;BME280;36359;41.556;-8.418;2022-10-31T07:29:44;99636.13;;;16.82;100.00
50430;BME280;36359;41.556;-8.418;2022-10-31T07:32:10;99648.56;;;16.91;100.00
50430;BME280;36359;41.556;-8.418;2022-10-31T07:34:42;99639.31;;;16.98;100.00
50430;BME280;36359;41.556;-8.418;2022-10-31T07:37:16;99637.19;;;16.94;100.00
50430;BME280;36359;41.556;-8.418;2022-10-31T07:39:41;99639.53;;;17.10;100.00
50430;BME280;36359;41.556;-8.418;2022-10-31T07:42:07;99645.88;;;17.04;100.00
50430;BME280;36359;41.556;-8.418;2022-10-31T07:44:34;99648.84;;;17.09;100.00
50430;BME280;36359;41.556;-8.418;2022-10-31T07:47:19;99666.72;;;17.12;100.00
50430;BME280;36359;41.556;-8.418;2022-10-31T07:50:03;99657.91;;;17.03;100.00
50430;BME280;36359;41.556;-8.418;2022-10-31T07:53:06;99669.88;;;17.09;100.00
50430;BME280;36359;41.556;-8.418;2022-10-31T07:55:52;99677.09;;;17.16;100.00
50430;BME280;36359;41.556;-8.418;2022-10-31T07:58:18;99673.28;;;17.11;100.00
50430;BME280;36359;41.556;-8.418;2022-10-31T08:00:46;99671.81;;;17.21;100.00
50430;BME280;36359;41.556;-8.418;2022-10-31T08:03:17;99676.84;;;17.05;100.00
50430;BME280;36359;41.556;-8.418;2022-10-31T08:05:56;99684.06;;;17.19;100.00
50430;BME280;36359;41.556;-8.418;2022-10-31T08:08:40;99695.44;;;17.16;100.00
50430;BME280;36359;41.556;-8.418;2022-10-31T08:11:08;99698.81;;;17.18;100.00
50430;BME280;36359;41.556;-8.418;2022-10-31T08:13:33;99703.84;;;17.14;100.00
50430;BME280;36359;41.556;-8.418;2022-10-31T08:16:03;99691.63;;;17.03;100.00
50430;BME280;36359;41.556;-8.418;2022-10-31T08:18:36;99708.94;;;17.31;100.00
50430;BME280;36359;41.556;-8.418;2022-10-31T08:21:05;99706.22;;;17.57;100.00
50430;BME280;36359;41.556;-8.418;2022-10-31T08:23:51;99716.34;;;17.70;100.00
50430;BME280;36359;41.556;-8.418;2022-10-31T08:26:28;99741.50;;;17.87;100.00
50430;BME280;36359;41.556;-8.418;2022-10-31T08:28:55;99736.63;;;17.82;100.00
50430;BME280;36359;41.556;-8.418;2022-10-31T08:31:33;99734.50;;;17.58;100.00
50430;BME280;36359;41.556;-8.418;2022-10-31T08:34:17;99761.31;;;17.69;100.00
50430;BME280;36359;41.556;-8.418;2022-10-31T08:37:02;99753.09;;;17.69;100.00
50430;BME280;36359;41.556;-8.418;2022-10-31T08:39:39;99752.03;;;17.63;100.00
50430;BME280;36359;41.556;-8.418;2022-10-31T08:42:17;99761.31;;;17.69;100.00
50430;BME280;36359;41.556;-8.418;2022-10-31T08:44:43;99773.97;;;17.70;100.00
50430;BME280;36359;41.556;-8.418;2022-10-31T08:47:09;99777.59;;;17.84;100.00
50430;BME280;36359;41.556;-8.418;2022-10-31T08:49:36;99777.41;;;17.92;100.00
50430;BME280;36359;41.556;-8.418;2022-10-31T08:52:02;99778.66;;;17.96;100.00
50430;BME280;36359;41.556;-8.418;2022-10-31T08:54:32;99782.03;;;18.05;100.00
50430;BME280;36359;41.556;-8.418;2022-10-31T08:57:17;99781.19;;;18.04;100.00
50430;BME280;36359;41.556;-8.418;2022-10-31T08:59:44;99780.34;;;18.04;100.00
50430;BME280;36359;41.556;-8.418;2022-10-31T09:02:13;99795.97;;;18.10;100.00
50430;BME280;36359;41.556;-8.418;2022-10-31T09:04:39;99797.44;;;18.12;100.00
50430;BME280;36359;41.556;-8.418;2022-10-31T09:07:05;99791.75;;;18.07;100.00
50430;BME280;36359;41.556;-8.418;2022-10-31T09:09:30;99799.97;;;18.14;100.00
50430;BME280;36359;41.556;-8.418;2022-10-31T09:11:56;99800.81;;;18.08;100.00
50430;BME280;36359;41.556;-8.418;2022-10-31T09:14:22;99792.81;;;18.06;100.00
50430;BME280;36359;41.556;-8.418;2022-10-31T09:17:14;99804.00;;;18.05;100.00
50430;BME280;36359;41.556;-8.418;2022-10-31T09:20:03;99814.31;;;18.03;100.00
50430;BME280;36359;41.556;-8.418;2022-10-31T09:22:33;99820.91;;;18.15;100.00
50430;BME280;36359;41.556;-8.418;2022-10-31T09:24:59;99821.94;;;18.14;100.00
50430;BME280;36359;41.556;-8.418;2022-10-31T09:27:24;99817.31;;;18.21;100.00
50430;BME280;36359;41.556;-8.418;2022-10-31T09:29:52;99824.25;;;18.17;100.00
50430;BME280;36359;41.556;-8.418;2022-10-31T09:32:19;99821.75;;;18.09;100.00
50430;BME280;36359;41.556;-8.418;2022-10-31T09:34:45;99829.97;;;18.09;100.00
50430;BME280;36359;41.556;-8.418;2022-10-31T09:37:17;99838.19;;;18.02;100.00
50430;BME280;36359;41.556;-8.418;2022-10-31T09:39:43;99830.19;;;18.07;100.00
50430;BME280;36359;41.556;-8.418;2022-10-31T09:54:05;99836.94;;;18.25;100.00
50430;BME280;36359;41.556;-8.418;2022-10-31T09:56:35;99828.03;;;18.29;100.00
50430;BME280;36359;41.556;-8.418;2022-10-31T09:59:04;99826.78;;;18.38;100.00
50430;BME280;36359;41.556;-8.418;2022-10-31T10:19:57;99831.59;;;18.76;100.00
50430;BME280;36359;41.556;-8.418;2022-10-31T10:25:21;99840.91;;;18.75;100.00
50430;BME280;36359;41.556;-8.418;2022-10-31T10:30:34;99839.00;;;18.56;100.00
50430;BME280;36359;41.556;-8.418;2022-10-31T10:33:33;99838.84;;;18.24;100.00
50430;BME280;36359;41.556;-8.418;2022-10-31T10:36:04;99852.13;;;18.14;100.00
50430;BME280;36359;41.556;-8.418;2022-10-31T10:38:51;99846.03;;;18.12;100.00
50430;BME280;36359;41.556;-8.418;2022-10-31T10:41:22;99849.81;;;18.17;100.00
50430;BME280;36359;41.556;-8.418;2022-10-31T10:43:51;99836.94;;;17.91;100.00
50430;BME280;36359;41.556;-8.418;2022-10-31T10:55:06;99834.41;;;18.30;100.00
50430;BME280;36359;41.556;-8.418;2022-10-31T10:57:55;99839.47;;;18.39;100.00
50430;BME280;36359;41.556;-8.418;2022-10-31T11:00:24;99844.53;;;18.36;100.00
50430;BME280;36359;41.556;-8.418;2022-10-31T11:02:51;99846.84;;;18.46;100.00
50430;BME280;36359;41.556;-8.418;2022-10-31T11:07:49;99849.38;;;18.54;100.00
50430;BME280;36359;41.556;-8.418;2022-10-31T11:10:18;99851.69;;;18.57;100.00
50430;BME280;36359;41.556;-8.418;2022-10-31T11:12:57;99844.50;;;18.63;100.00
50430;BME280;36359;41.556;-8.418;2022-10-31T11:15:25;99834.16;;;18.58;100.00
50430;BME280;36359;41.556;-8.418;2022-10-31T11:17:55;99848.91;;;18.70;100.00
50430;BME280;36359;41.556;-8.418;2022-10-31T11:20:24;99844.69;;;18.61;100.00
50430;BME280;36359;41.556;-8.418;2022-10-31T11:23:01;99833.50;;;18.63;100.00
50430;BME280;36359;41.556;-8.418;2022-10-31T11:25:27;99837.31;;;18.55;100.00
50430;BME280;36359;41.556;-8.418;2022-10-31T11:28:04;99849.16;;;18.49;100.00
50430;BME280;36359;41.556;-8.418;2022-10-31T11:30:35;99852.31;;;18.52;100.00
50430;BME280;36359;41.556;-8.418;2022-10-31T11:33:01;99866.69;;;18.61;100.00
50430;BME280;36359;41.556;-8.418;2022-10-31T11:35:28;99871.78;;;18.77;100.00
50430;BME280;36359;41.556;-8.418;2022-10-31T11:38:05;99888.28;;;18.51;100.00
50430;BME280;36359;41.556;-8.418;2022-10-31T11:40:31;99903.00;;;17.97;100.00
50430;BME280;36359;41.556;-8.418;2022-10-31T11:42:58;99906.94;;;17.74;100.00
50430;BME280;36359;41.556;-8.418;2022-10-31T11:45:34;99921.13;;;17.30;100.00
50430;BME280;36359;41.556;-8.418;2022-10-31T11:48:02;99925.34;;;17.32;100.00
50430;BME280;36359;41.556;-8.418;2022-10-31T11:50:41;99927.31;;;17.03;100.00
50430;BME280;36359;41.556;-8.418;2022-10-31T11:53:22;99936.56;;;17.02;100.00
50430;BME280;36359;41.556;-8.418;2022-10-31T11:56:02;99948.16;;;17.33;100.00
50430;BME280;36359;41.556;-8.418;2022-10-31T11:58:29;99952.31;;;17.29;100.00
50430;BME280;36359;41.556;-8.418;2022-10-31T12:00:56;99949.41;;;17.37;100.00
50430;BME280;36359;41.556;-8.418;2022-10-31T12:06:16;99970.69;;;17.76;100.00
50430;BME280;36359;41.556;-8.418;2022-10-31T12:08:44;99965.19;;;17.76;100.00
50430;BME280;36359;41.556;-8.418;2022-10-31T12:11:54;99969.53;;;18.05;100.00
50430;BME280;36359;41.556;-8.418;2022-10-31T12:25:08;99983.03;;;17.93;100.00
50430;BME280;36359;41.556;-8.418;2022-10-31T12:35:38;99990.66;;;17.98;100.00
50430;BME280;36359;41.556;-8.418;2022-10-31T12:40:53;99995.75;;;18.14;100.00
50430;BME280;36359;41.556;-8.418;2022-10-31T12:45:58;100005.88;;;18.01;100.00
50430;BME280;36359;41.556;-8.418;2022-10-31T12:53:32;100003.88;;;17.46;100.00
50430;BME280;36359;41.556;-8.418;2022-10-31T12:56:18;100006.88;;;17.52;100.00
50430;BME280;36359;41.556;-8.418;2022-10-31T12:59:01;100011.09;;;17.47;100.00
50430;BME280;36359;41.556;-8.418;2022-10-31T13:01:34;100017.88;;;17.58;100.00
50430;BME280;36359;41.556;-8.418;2022-10-31T13:06:51;100020.19;;;17.55;100.00
50430;BME280;36359;41.556;-8.418;2022-10-31T13:09:25;100019.50;;;17.46;100.00
50430;BME280;36359;41.556;-8.418;2022-10-31T13:12:04;100023.66;;;17.35;100.00
50430;BME280;36359;41.556;-8.418;2022-10-31T13:14:39;100023.28;;;17.38;100.00
50430;BME280;36359;41.556;-8.418;2022-10-31T13:17:23;100027.47;;;17.41;100.00
50430;BME280;36359;41.556;-8.418;2022-10-31T13:19:54;100024.63;;;17.21;100.00
50430;BME280;36359;41.556;-8.418;2022-10-31T13:22:24;100022.72;;;16.93;95.80
50430;BME280;36359;41.556;-8.418;2022-10-31T13:30:22;100029.03;;;17.15;93.49
50430;BME280;36359;41.556;-8.418;2022-10-31T13:41:22;100035.84;;;17.67;94.39
50430;BME280;36359;41.556;-8.418;2022-10-31T13:46:57;100035.22;;;17.65;98.35
50430;BME280;36359;41.556;-8.418;2022-10-31T13:51:52;100028.94;;;17.71;94.82
50430;BME280;36359;41.556;-8.418;2022-10-31T13:54:31;100040.34;;;17.75;90.94
50430;BME280;36359;41.556;-8.418;2022-10-31T13:56:57;100033.78;;;17.69;89.00
50430;BME280;36359;41.556;-8.418;2022-10-31T13:59:28;100038.81;;;17.66;90.09
50430;BME280;36359;41.556;-8.418;2022-10-31T14:01:58;100039.78;;;17.52;87.73
50430;BME280;36359;41.556;-8.418;2022-10-31T14:04:47;100045.69;;;17.48;87.01
50430;BME280;36359;41.556;-8.418;2022-10-31T14:07:19;100044.50;;;18.06;96.39
50430;BME280;36359;41.556;-8.418;2022-10-31T14:10:04;100047.88;;;17.95;84.80
50430;BME280;36359;41.556;-8.418;2022-10-31T14:12:44;100044.84;;;17.83;98.13
50430;BME280;36359;41.556;-8.418;2022-10-31T14:15:30;100050.63;;;17.66;86.84
50430;BME280;36359;41.556;-8.418;2022-10-31T14:17:59;100044.72;;;17.28;86.77
50430;BME280;36359;41.556;-8.418;2022-10-31T14:20:36;100043.75;;;17.42;92.64
50430;BME280;36359;41.556;-8.418;2022-10-31T14:25:53;100037.56;;;17.68;86.79
50430;BME280;36359;41.556;-8.418;2022-10-31T14:28:21;100043.13;;;17.82;91.40
50430;BME280;36359;41.556;-8.418;2022-10-31T14:30:56;100051.84;;;17.57;84.40
50430;BME280;36359;41.556;-8.418;2022-10-31T14:33:25;100059.50;;;17.34;86.55
50430;BME280;36359;41.556;-8.418;2022-10-31T14:36:11;100057.06;;;17.45;92.28
50430;BME280;36359;41.556;-8.418;2022-10-31T14:42:00;100072.00;;;17.71;87.59
50430;BME280;36359;41.556;-8.418;2022-10-31T14:52:19;100087.81;;;18.04;88.63
50430;BME280;36359;41.556;-8.418;2022-10-31T14:54:52;100095.16;;;17.97;82.44
50430;BME280;36359;41.556;-8.418;2022-10-31T14:57:23;100102.47;;;17.83;86.83
50430;BME280;36359;41.556;-8.418;2022-10-31T14:59:56;100102.66;;;17.81;81.37
50430;BME280;36359;41.556;-8.418;2022-10-31T15:02:35;100110.59;;;17.69;80.64
50430;BME280;36359;41.556;-8.418;2022-10-31T15:05:09;100122.66;;;17.75;81.45
50430;BME280;36359;41.556;-8.418;2022-10-31T15:07:36;100130.75;;;17.55;83.98
50430;BME280;36359;41.556;-8.418;2022-10-31T15:10:18;100125.47;;;17.54;84.46
50430;BME280;36359;41.556;-8.418;2022-10-31T15:12:44;100132.63;;;17.48;84.61
50430;BME280;36359;41.556;-8.418;2022-10-31T15:15:12;100139.75;;;17.42;84.78
50430;BME280;36359;41.556;-8.418;2022-10-31T15:17:55;100146.72;;;17.45;84.50
50430;BME280;36359;41.556;-8.418;2022-10-31T15:20:25;100149.25;;;17.75;93.43
50430;BME280;36359;41.556;-8.418;2022-10-31T15:22:52;100149.22;;;17.68;85.26
50430;BME280;36359;41.556;-8.418;2022-10-31T15:25:21;100156.03;;;18.07;82.67
50430;BME280;36359;41.556;-8.418;2022-10-31T15:27:48;100163.56;;;17.91;84.19
50430;BME280;36359;41.556;-8.418;2022-10-31T15:30:22;100163.78;;;17.97;86.88